Terminal Aerodrome Forecast
Issued by NWS

Home | Current Version | Previous Version | Text Only | Print | Product List | Glossary On
Versions: 1 2 3 4 5 6 7 8 9 10 11 12
000
FTUS45 KREV 282321
TAFTVL
TAF
KTVL 282321Z 2900/2924 VRB05KT P6SM VCSH SCT060 BKN200
     FM290300 VRB04KT P6SM FEW050 SCT250
     FM292100 03008KT P6SM SCT050 SCT250=

USA.gov is the U.S. government's official web portal to all federal, state and local government web resources and services.